createdAt,value
2023-05-05T00:00:34.600Z,7.15
2023-05-05T00:01:55.686Z,6.85
2023-05-05T00:03:16.479Z,5.80
2023-05-05T00:04:37.245Z,5.80
2023-05-05T00:05:58.027Z,5.73
2023-05-05T00:07:18.880Z,5.30
2023-05-05T00:08:39.806Z,5.30
2023-05-05T00:10:00.589Z,4.45
2023-05-05T00:11:21.592Z,5.30
2023-05-05T00:12:43.484Z,5.15
2023-05-05T00:14:04.327Z,5.13
2023-05-05T00:15:25.142Z,4.57
2023-05-05T00:16:45.741Z,4.63
2023-05-05T00:18:06.489Z,4.95
2023-05-05T00:19:27.200Z,4.85
2023-05-05T00:20:48.241Z,5.05
2023-05-05T00:22:09.059Z,4.68
2023-05-05T00:23:29.667Z,5.13
2023-05-05T00:24:50.509Z,5.00
2023-05-05T00:26:10.917Z,5.20
2023-05-05T00:27:31.533Z,4.60
2023-05-05T00:28:53.574Z,4.82
2023-05-05T00:30:14.372Z,4.85
2023-05-05T00:31:35.329Z,4.45
2023-05-05T00:32:56.066Z,3.65
2023-05-05T00:34:16.694Z,4.07
2023-05-05T00:35:37.160Z,3.33
2023-05-05T00:36:57.846Z,3.83
2023-05-05T00:38:18.494Z,3.22
2023-05-05T00:39:39.232Z,3.35
2023-05-05T00:40:59.810Z,3.42
2023-05-05T00:42:20.711Z,3.38
2023-05-05T00:43:41.437Z,3.25
2023-05-05T00:45:03.735Z,3.27
2023-05-05T00:46:27.019Z,3.08
2023-05-05T00:47:49.774Z,3.72
2023-05-05T00:49:10.362Z,4.57
2023-05-05T00:50:31.402Z,4.13
2023-05-05T00:51:51.810Z,3.72
2023-05-05T00:53:12.799Z,4.10
2023-05-05T00:54:33.426Z,4.20
2023-05-05T00:55:54.349Z,4.47
2023-05-05T00:57:14.681Z,3.67
2023-05-05T00:58:36.985Z,3.95
2023-05-05T00:59:59.205Z,3.95
2023-05-05T01:01:21.204Z,4.25
2023-05-05T01:02:41.852Z,3.92
2023-05-05T01:04:02.550Z,4.53
2023-05-05T01:05:24.506Z,4.28
2023-05-05T01:06:53.867Z,4.15
2023-05-05T01:08:29.550Z,4.50
2023-05-05T01:10:07.275Z,4.38
2023-05-05T01:11:35.759Z,5.03
2023-05-05T01:13:05.556Z,4.72
2023-05-05T01:14:32.060Z,4.10
2023-05-05T01:15:56.539Z,4.10
2023-05-05T01:17:20.592Z,4.13
2023-05-05T01:18:47.783Z,3.92
2023-05-05T01:20:15.179Z,4.10
2023-05-05T01:21:40.134Z,3.97
2023-05-05T01:23:05.289Z,3.88
2023-05-05T01:24:49.527Z,4.20
2023-05-05T01:26:24.853Z,3.22
2023-05-05T01:27:54.275Z,4.07
2023-05-05T01:29:34.674Z,3.55
2023-05-05T01:31:06.384Z,3.72
2023-05-05T01:32:30.632Z,3.35
2023-05-05T01:33:55.222Z,3.63
2023-05-05T01:35:19.644Z,3.42
2023-05-05T01:36:41.676Z,3.53
2023-05-05T01:38:06.306Z,3.70
2023-05-05T01:39:28.836Z,3.05
2023-05-05T01:40:50.681Z,4.00
2023-05-05T01:42:11.733Z,3.97
2023-05-05T01:43:34.200Z,3.30
2023-05-05T01:44:54.924Z,3.50
2023-05-05T01:46:16.479Z,3.45
2023-05-05T01:47:39.886Z,3.38
2023-05-05T01:49:00.613Z,2.95
2023-05-05T01:50:21.831Z,3.50
2023-05-05T01:51:42.724Z,3.30
2023-05-05T01:53:03.777Z,3.22
2023-05-05T01:54:24.796Z,3.70
2023-05-05T01:55:45.858Z,3.13
2023-05-05T01:57:07.902Z,3.85
2023-05-05T01:58:29.540Z,3.13
2023-05-05T01:59:51.191Z,3.50
2023-05-05T02:01:23.288Z,2.95
2023-05-05T02:02:47.267Z,3.30
2023-05-05T02:04:08.917Z,4.78
2023-05-05T02:05:30.355Z,4.00
2023-05-05T02:06:52.013Z,3.70
2023-05-05T02:08:12.935Z,3.65
2023-05-05T02:09:33.824Z,4.10
2023-05-05T02:10:54.907Z,4.28
2023-05-05T02:12:15.745Z,3.75
2023-05-05T02:13:37.129Z,3.80
2023-05-05T02:15:00.172Z,4.20
2023-05-05T02:16:22.325Z,4.05
2023-05-05T02:17:44.857Z,4.30
2023-05-05T02:19:05.676Z,3.83
2023-05-05T02:20:27.563Z,3.30
2023-05-05T02:21:48.502Z,3.65
2023-05-05T02:23:09.212Z,3.40
2023-05-05T02:24:29.740Z,4.00
2023-05-05T02:25:51.208Z,3.50
2023-05-05T02:27:12.422Z,3.80
2023-05-05T02:28:36.346Z,3.53
2023-05-05T02:29:59.084Z,3.92
2023-05-05T02:31:20.760Z,4.00
2023-05-05T02:32:47.071Z,3.40
2023-05-05T02:34:08.214Z,4.55
2023-05-05T02:35:35.692Z,4.05
2023-05-05T02:36:58.535Z,4.03
2023-05-05T02:38:19.066Z,3.65
2023-05-05T02:39:43.028Z,4.05
2023-05-05T02:41:03.772Z,4.20
2023-05-05T02:42:26.646Z,3.78
2023-05-05T02:43:49.134Z,4.18
2023-05-05T02:45:12.286Z,3.80
2023-05-05T02:46:33.073Z,4.22
2023-05-05T02:47:55.098Z,4.03
2023-05-05T02:49:16.023Z,4.47
2023-05-05T02:50:36.376Z,4.30
2023-05-05T02:51:57.188Z,4.65
2023-05-05T02:53:20.719Z,5.60
2023-05-05T02:54:41.320Z,5.28
2023-05-05T02:56:08.289Z,6.88
2023-05-05T02:57:35.984Z,6.80
2023-05-05T02:59:09.982Z,6.78
2023-05-05T03:00:36.106Z,6.38
2023-05-05T03:02:03.536Z,6.35
2023-05-05T03:03:30.937Z,7.15
2023-05-05T03:04:56.797Z,6.82
2023-05-05T03:06:19.616Z,7.03
2023-05-05T03:07:43.061Z,6.97
2023-05-05T03:09:07.205Z,7.47
2023-05-05T03:10:29.965Z,7.63
2023-05-05T03:11:55.139Z,7.78
2023-05-05T03:13:17.447Z,7.80
2023-05-05T03:14:40.515Z,8.40
2023-05-05T03:16:01.728Z,8.88
2023-05-05T03:17:23.136Z,9.10
2023-05-05T03:18:45.874Z,9.63
2023-05-05T03:20:07.808Z,10.35
2023-05-05T03:21:28.811Z,10.50
2023-05-05T03:22:49.788Z,11.43
2023-05-05T03:24:13.956Z,11.57
2023-05-05T03:25:45.179Z,12.00
2023-05-05T03:27:06.517Z,13.73
2023-05-05T03:28:27.475Z,13.43
2023-05-05T03:29:47.970Z,14.38
2023-05-05T03:31:08.681Z,14.55
2023-05-05T03:32:29.144Z,16.08
2023-05-05T03:33:51.075Z,16.30
2023-05-05T03:35:12.055Z,16.45
2023-05-05T03:36:32.726Z,16.85
2023-05-05T03:37:53.290Z,17.02
2023-05-05T03:39:13.686Z,17.88
2023-05-05T03:40:43.523Z,18.55
2023-05-05T03:42:05.959Z,19.08
2023-05-05T03:43:26.466Z,18.08
2023-05-05T03:44:47.138Z,18.73
2023-05-05T03:46:07.659Z,19.73
2023-05-05T03:47:28.222Z,20.63
2023-05-05T03:48:50.433Z,20.02
2023-05-05T03:50:11.065Z,20.42
2023-05-05T03:51:31.588Z,20.27
2023-05-05T03:52:53.271Z,20.00
2023-05-05T03:54:13.737Z,21.63
2023-05-05T03:55:34.494Z,21.58
2023-05-05T03:56:54.952Z,20.67
2023-05-05T03:58:15.902Z,21.80
2023-05-05T03:59:36.353Z,22.55
2023-05-05T04:00:57.099Z,21.10
2023-05-05T04:02:18.599Z,21.33
2023-05-05T04:03:39.633Z,20.95
2023-05-05T04:05:01.547Z,23.40
2023-05-05T04:06:22.237Z,23.50
2023-05-05T04:07:42.989Z,23.38
2023-05-05T04:09:03.913Z,24.85
2023-05-05T04:10:24.874Z,26.63
2023-05-05T04:11:45.456Z,23.92
2023-05-05T04:13:06.044Z,23.40
2023-05-05T04:14:26.521Z,23.77
2023-05-05T04:15:47.765Z,23.48
2023-05-05T04:17:08.465Z,24.55
2023-05-05T04:18:29.168Z,24.25
2023-05-05T04:19:49.925Z,25.67
2023-05-05T04:21:11.862Z,25.33
2023-05-05T04:22:32.676Z,24.20
2023-05-05T04:23:53.103Z,24.10
2023-05-05T04:25:14.059Z,24.35
2023-05-05T04:26:34.775Z,24.30
2023-05-05T04:27:55.189Z,24.15
2023-05-05T04:29:16.059Z,24.90
2023-05-05T04:30:36.515Z,24.73
2023-05-05T04:31:57.325Z,24.45
2023-05-05T04:33:18.002Z,25.27
2023-05-05T04:34:38.788Z,25.63
2023-05-05T04:35:59.463Z,25.85
2023-05-05T04:37:21.301Z,24.48
2023-05-05T04:38:41.694Z,27.20
2023-05-05T04:40:02.392Z,25.85
2023-05-05T04:41:23.185Z,29.17
2023-05-05T04:42:43.897Z,27.85
2023-05-05T04:44:04.761Z,27.13
2023-05-05T04:45:25.343Z,26.00
2023-05-05T04:46:45.943Z,26.93
2023-05-05T04:48:06.944Z,28.33
2023-05-05T04:49:29.381Z,28.20
2023-05-05T04:50:50.199Z,28.98
2023-05-05T04:52:12.159Z,27.05
2023-05-05T04:53:34.516Z,28.55
2023-05-05T04:54:55.137Z,26.30
2023-05-05T04:56:15.705Z,26.60
2023-05-05T04:57:36.045Z,28.23
2023-05-05T04:58:56.593Z,27.50
2023-05-05T05:00:17.584Z,27.77
2023-05-05T05:01:38.782Z,26.38
2023-05-05T05:02:59.797Z,29.98
2023-05-05T05:04:20.393Z,27.10
2023-05-05T05:05:41.193Z,27.52
2023-05-05T05:07:01.854Z,27.73
2023-05-05T05:08:22.525Z,29.00
2023-05-05T05:09:44.651Z,28.15
2023-05-05T05:11:05.443Z,28.08
2023-05-05T05:12:26.136Z,26.83
2023-05-05T05:13:46.834Z,27.88
2023-05-05T05:15:09.055Z,27.95
2023-05-05T05:16:29.991Z,27.27
2023-05-05T05:17:50.766Z,27.95
2023-05-05T05:19:11.431Z,27.98
2023-05-05T05:20:31.976Z,28.85
2023-05-05T05:21:52.693Z,29.50
2023-05-05T05:23:13.329Z,28.20
2023-05-05T05:24:33.918Z,27.33
2023-05-05T05:25:55.970Z,29.52
2023-05-05T05:27:16.596Z,28.80
2023-05-05T05:28:37.212Z,28.33
2023-05-05T05:29:57.896Z,30.42
2023-05-05T05:31:18.579Z,28.95
2023-05-05T05:32:39.533Z,28.95
2023-05-05T05:34:00.197Z,30.02
2023-05-05T05:35:20.970Z,29.73
2023-05-05T05:36:41.617Z,28.98
2023-05-05T05:38:02.426Z,29.27
2023-05-05T05:39:23.204Z,28.70
2023-05-05T05:40:43.906Z,28.50
2023-05-05T05:42:05.906Z,31.58
2023-05-05T05:43:26.203Z,29.17
2023-05-05T05:44:46.686Z,27.42
2023-05-05T05:46:09.177Z,28.50
2023-05-05T05:47:30.082Z,26.13
2023-05-05T05:48:50.527Z,28.42
2023-05-05T05:50:11.613Z,28.13
2023-05-05T05:51:32.115Z,27.08
2023-05-05T05:52:52.850Z,25.95
2023-05-05T05:54:13.584Z,26.35
2023-05-05T05:55:34.392Z,26.67
2023-05-05T05:56:55.276Z,25.13
2023-05-05T05:58:17.230Z,24.88
2023-05-05T05:59:37.635Z,26.58
2023-05-05T06:00:58.408Z,25.33
2023-05-05T06:02:19.508Z,26.38
2023-05-05T06:03:40.278Z,24.65
2023-05-05T06:05:01.062Z,25.25
2023-05-05T06:06:21.712Z,22.98
2023-05-05T06:07:42.456Z,25.33
2023-05-05T06:09:03.350Z,27.08
2023-05-05T06:10:27.793Z,25.52
2023-05-05T06:11:48.844Z,25.83
2023-05-05T06:13:09.734Z,26.10
2023-05-05T06:14:31.590Z,27.60
2023-05-05T06:15:52.583Z,26.10
2023-05-05T06:17:12.960Z,26.67
2023-05-05T06:18:33.638Z,26.35
2023-05-05T06:19:54.607Z,26.38
2023-05-05T06:21:14.888Z,24.95
2023-05-05T06:22:35.822Z,25.33
2023-05-05T06:23:56.408Z,26.13
2023-05-05T06:25:17.397Z,25.67
2023-05-05T06:26:38.121Z,26.00
2023-05-05T06:27:58.575Z,24.48
2023-05-05T06:29:19.335Z,24.10
2023-05-05T06:30:41.366Z,22.92
2023-05-05T06:32:02.156Z,23.23
2023-05-05T06:33:22.861Z,22.13
2023-05-05T06:34:43.524Z,21.90
2023-05-05T06:36:04.586Z,21.83
2023-05-05T06:37:25.327Z,20.13
2023-05-05T06:38:46.138Z,22.60
2023-05-05T06:40:08.819Z,22.23
2023-05-05T06:41:29.286Z,22.73
2023-05-05T06:42:49.884Z,20.45
2023-05-05T06:44:10.489Z,21.10
2023-05-05T06:45:31.188Z,20.90
2023-05-05T06:46:54.159Z,22.33
2023-05-05T06:48:15.404Z,23.25
2023-05-05T06:49:36.254Z,21.30
2023-05-05T06:50:56.935Z,19.07
2023-05-05T06:52:17.651Z,19.02
2023-05-05T06:53:38.319Z,21.02
2023-05-05T06:54:58.884Z,20.98
2023-05-05T06:56:19.582Z,19.15
2023-05-05T06:57:39.985Z,20.90
2023-05-05T06:59:00.561Z,18.73
2023-05-05T07:00:21.848Z,17.60
2023-05-05T07:01:42.419Z,16.58
2023-05-05T07:03:04.580Z,16.38
2023-05-05T07:04:24.834Z,15.65
2023-05-05T07:05:45.354Z,15.17
2023-05-05T07:08:27.253Z,14.70
2023-05-05T07:09:47.962Z,12.98
2023-05-05T07:11:08.878Z,12.80
2023-05-05T07:12:30.366Z,12.38
2023-05-05T07:13:50.722Z,12.27
2023-05-05T07:15:26.082Z,11.63
2023-05-05T07:16:49.196Z,13.60
2023-05-05T07:18:11.252Z,11.80
2023-05-05T07:19:31.913Z,12.57
2023-05-05T07:20:52.181Z,12.50
2023-05-05T07:22:12.698Z,10.90
2023-05-05T07:23:33.513Z,11.45
2023-05-05T07:24:54.134Z,11.05
2023-05-05T07:26:14.997Z,10.55
2023-05-05T07:27:35.657Z,12.40
2023-05-05T07:28:56.093Z,12.55
2023-05-05T07:30:18.805Z,10.90
2023-05-05T07:31:40.327Z,10.68
2023-05-05T07:33:01.018Z,10.10
2023-05-05T07:34:23.195Z,9.90
2023-05-05T07:35:43.585Z,10.20
2023-05-05T07:37:04.279Z,11.10
2023-05-05T07:38:24.601Z,11.02
2023-05-05T07:39:45.262Z,10.93
2023-05-05T07:41:06.055Z,11.00
2023-05-05T07:42:26.597Z,10.48
2023-05-05T07:43:47.620Z,9.93
2023-05-05T07:45:08.781Z,10.45
2023-05-05T07:46:29.616Z,10.20
2023-05-05T07:47:50.111Z,9.98
2023-05-05T07:49:10.640Z,10.10
2023-05-05T07:50:32.681Z,10.18
2023-05-05T07:51:53.024Z,10.50
2023-05-05T07:53:15.119Z,10.82
2023-05-05T07:54:35.855Z,10.27
2023-05-05T07:55:56.523Z,10.48
2023-05-05T07:57:17.117Z,10.60
2023-05-05T07:58:37.672Z,11.68
2023-05-05T07:59:57.968Z,10.50
2023-05-05T08:01:20.032Z,9.32
2023-05-05T08:02:40.500Z,9.75
2023-05-05T08:04:01.287Z,9.48
2023-05-05T08:05:21.963Z,7.82
2023-05-05T08:06:44.141Z,9.02
2023-05-05T08:08:05.197Z,8.45
2023-05-05T08:09:25.952Z,8.75
2023-05-05T08:10:46.558Z,8.13
2023-05-05T08:12:07.340Z,8.77
2023-05-05T08:13:28.043Z,5.78
2023-05-05T08:14:48.915Z,5.97
2023-05-05T08:16:10.078Z,7.00
2023-05-05T08:17:30.722Z,6.10
2023-05-05T08:18:51.770Z,7.25
2023-05-05T08:20:12.822Z,6.07
2023-05-05T08:21:33.148Z,6.55
2023-05-05T08:22:55.404Z,6.47
2023-05-05T08:24:15.943Z,6.47
2023-05-05T08:25:37.112Z,6.53
2023-05-05T08:26:57.764Z,7.38
2023-05-05T08:28:18.458Z,6.90
2023-05-05T08:29:39.095Z,6.60
2023-05-05T08:30:59.771Z,6.23
2023-05-05T08:32:20.562Z,6.45
2023-05-05T08:33:40.895Z,7.07
2023-05-05T08:35:02.669Z,6.80
2023-05-05T08:36:23.062Z,6.57
2023-05-05T08:37:43.720Z,5.93
2023-05-05T08:39:05.826Z,6.38
2023-05-05T08:40:32.142Z,7.00
2023-05-05T08:41:52.828Z,6.50
2023-05-05T08:43:13.250Z,7.00
2023-05-05T08:44:34.045Z,6.72
2023-05-05T08:45:55.090Z,6.68
2023-05-05T08:47:15.820Z,5.25
2023-05-05T08:48:38.898Z,6.10
2023-05-05T08:49:59.723Z,5.28
2023-05-05T08:51:20.698Z,4.90
2023-05-05T08:52:42.429Z,4.40
2023-05-05T08:55:25.800Z,4.40
2023-05-05T08:56:47.744Z,4.05
2023-05-05T08:58:09.070Z,3.88
2023-05-05T08:59:30.325Z,3.55
2023-05-05T09:00:50.936Z,4.03
2023-05-05T09:02:12.041Z,3.55
2023-05-05T09:03:32.994Z,3.30
2023-05-05T09:04:53.453Z,3.40
2023-05-05T09:06:14.244Z,3.45
2023-05-05T09:07:35.098Z,2.88
2023-05-05T09:08:57.599Z,2.75
2023-05-05T09:10:20.352Z,3.33
2023-05-05T09:11:43.173Z,3.05
2023-05-05T09:13:04.827Z,2.47
2023-05-05T09:14:25.976Z,2.85
2023-05-05T09:15:46.563Z,2.10
2023-05-05T09:17:07.287Z,1.88
2023-05-05T09:18:28.566Z,2.28
2023-05-05T09:20:02.718Z,2.20
2023-05-05T09:21:24.442Z,1.67
2023-05-05T09:24:10.197Z,1.98
2023-05-05T09:25:30.723Z,2.03
2023-05-05T09:26:52.440Z,1.75
2023-05-05T09:28:14.121Z,2.33
2023-05-05T09:29:34.820Z,2.30
2023-05-05T09:30:55.504Z,2.40
2023-05-05T09:32:16.433Z,2.65
2023-05-05T09:33:39.175Z,1.88
2023-05-05T09:35:00.888Z,2.03
2023-05-05T09:36:40.952Z,1.95
2023-05-05T09:38:11.312Z,2.10
2023-05-05T09:39:32.022Z,2.10
2023-05-05T09:40:54.013Z,2.25
2023-05-05T09:42:19.323Z,2.42
2023-05-05T09:43:57.455Z,3.15
2023-05-05T09:45:27.758Z,2.45
2023-05-05T09:46:51.024Z,2.90
2023-05-05T09:48:30.035Z,3.53
2023-05-05T09:49:57.509Z,2.55
2023-05-05T09:51:28.885Z,2.60
2023-05-05T09:53:00.744Z,2.67
2023-05-05T09:54:25.299Z,3.28
2023-05-05T09:55:55.592Z,3.97
2023-05-05T09:57:27.692Z,3.38
2023-05-05T09:58:48.580Z,3.60
2023-05-05T10:00:10.016Z,3.50
2023-05-05T10:01:31.148Z,3.42
2023-05-05T10:02:51.796Z,3.45
2023-05-05T10:04:23.288Z,3.70
2023-05-05T10:05:50.729Z,3.72
2023-05-05T10:07:22.773Z,3.85
2023-05-05T10:08:43.438Z,3.85
2023-05-05T10:10:05.311Z,4.25
2023-05-05T10:11:26.202Z,4.40
2023-05-05T10:12:48.909Z,4.20
2023-05-05T10:14:13.467Z,4.13
2023-05-05T10:15:33.718Z,5.00
2023-05-05T10:16:55.280Z,5.13
2023-05-05T10:19:37.014Z,4.47
2023-05-05T10:20:58.795Z,4.20
2023-05-05T10:22:23.077Z,3.85
2023-05-05T10:23:59.551Z,4.35
2023-05-05T10:25:25.239Z,5.85
2023-05-05T10:26:46.597Z,4.80
2023-05-05T10:28:10.153Z,4.78
2023-05-05T10:29:39.017Z,4.25
2023-05-05T10:31:02.041Z,3.70
2023-05-05T10:32:51.502Z,4.15
2023-05-05T10:34:10.829Z,4.00
2023-05-05T10:35:33.338Z,4.10
2023-05-05T10:36:54.111Z,3.97
2023-05-05T10:38:14.938Z,3.97
2023-05-05T10:39:36.627Z,6.32
2023-05-05T10:42:20.788Z,9.50
2023-05-05T10:43:42.861Z,7.85
2023-05-05T10:45:03.601Z,7.53
2023-05-05T10:46:24.947Z,7.90
2023-05-05T10:47:45.567Z,7.88
2023-05-05T10:49:13.507Z,7.20
2023-05-05T10:50:38.598Z,8.57
2023-05-05T10:52:05.739Z,8.05
2023-05-05T10:53:28.125Z,6.53
2023-05-05T10:54:54.902Z,7.72
2023-05-05T10:56:21.841Z,7.40
2023-05-05T10:57:44.575Z,7.53
2023-05-05T10:59:39.109Z,7.60
2023-05-05T11:00:59.871Z,7.45
2023-05-05T11:02:23.796Z,8.50
2023-05-05T11:03:44.459Z,8.73
2023-05-05T11:05:12.487Z,9.32
2023-05-05T11:06:33.260Z,9.23
2023-05-05T11:07:54.414Z,10.77
2023-05-05T11:09:27.349Z,9.90
2023-05-05T11:10:48.155Z,12.05
2023-05-05T11:12:09.271Z,10.65
2023-05-05T11:13:29.690Z,10.85
2023-05-05T11:15:23.504Z,10.35
2023-05-05T11:16:45.997Z,10.93
2023-05-05T11:18:07.762Z,10.38
2023-05-05T11:19:47.077Z,10.68
2023-05-05T11:21:16.937Z,9.25
2023-05-05T11:23:22.269Z,11.30
2023-05-05T11:24:42.681Z,10.13
2023-05-05T11:26:03.445Z,11.15
2023-05-05T11:28:11.813Z,10.50
2023-05-05T11:30:06.276Z,10.80
2023-05-05T11:31:27.083Z,10.23
2023-05-05T11:33:17.641Z,10.13
2023-05-05T11:34:48.397Z,9.25
2023-05-05T11:36:09.951Z,8.85
2023-05-05T11:37:30.636Z,6.90
2023-05-05T11:39:06.628Z,8.15
2023-05-05T11:40:29.778Z,8.60
2023-05-05T11:42:14.154Z,7.88
2023-05-05T11:43:34.877Z,7.53
2023-05-05T11:44:55.638Z,7.43
2023-05-05T11:46:16.857Z,8.07
2023-05-05T11:47:38.964Z,7.93
2023-05-05T11:48:59.988Z,8.18
2023-05-05T11:50:21.992Z,6.97
2023-05-05T11:51:43.541Z,7.93
2023-05-05T11:53:04.810Z,8.20
2023-05-05T11:54:29.462Z,8.25
2023-05-05T11:56:07.670Z,7.82
2023-05-05T11:57:31.296Z,6.75
2023-05-05T11:58:45.282Z,6.82
2023-05-05T12:00:07.472Z,6.97
2023-05-05T12:01:28.555Z,6.55
2023-05-05T12:02:56.345Z,6.05
2023-05-05T12:04:18.108Z,6.68
2023-05-05T12:08:21.189Z,7.57
2023-05-05T12:09:43.354Z,9.18
2023-05-05T12:11:04.251Z,9.85
2023-05-05T12:12:35.260Z,10.30
2023-05-05T12:14:08.913Z,9.75
2023-05-05T12:15:32.784Z,10.40
2023-05-05T12:16:56.222Z,10.25
2023-05-05T12:18:20.385Z,11.68
2023-05-05T12:19:48.101Z,10.30
2023-05-05T12:21:16.131Z,9.77
2023-05-05T12:22:37.089Z,9.63
2023-05-05T12:23:57.566Z,7.50
2023-05-05T12:25:17.938Z,6.78
2023-05-05T12:26:38.366Z,6.80
2023-05-05T12:27:59.064Z,7.50
2023-05-05T12:29:24.142Z,6.45
2023-05-05T12:30:56.168Z,6.82
2023-05-05T12:32:21.402Z,5.13
2023-05-05T12:33:42.630Z,5.30
2023-05-05T12:35:03.703Z,5.55
2023-05-05T12:36:25.974Z,5.47
2023-05-05T12:37:46.713Z,5.20
2023-05-05T12:39:06.986Z,4.47
2023-05-05T12:40:43.644Z,4.47
2023-05-05T12:42:04.129Z,4.97
2023-05-05T12:43:25.762Z,4.20
2023-05-05T12:44:46.357Z,4.95
2023-05-05T12:46:08.804Z,4.53
2023-05-05T12:47:30.100Z,3.70
2023-05-05T12:49:00.159Z,3.80
2023-05-05T12:50:29.927Z,4.43
2023-05-05T12:51:55.685Z,3.78
2023-05-05T12:53:21.129Z,3.90
2023-05-05T12:54:55.110Z,3.92
2023-05-05T12:56:34.682Z,4.13
2023-05-05T12:57:59.359Z,3.70
2023-05-05T12:59:29.924Z,4.28
2023-05-05T13:01:08.478Z,4.22
2023-05-05T13:02:34.062Z,3.88
2023-05-05T13:04:11.887Z,4.40
2023-05-05T13:05:33.220Z,4.35
2023-05-05T13:07:10.696Z,5.05
2023-05-05T13:08:42.286Z,4.45
2023-05-05T13:11:27.110Z,6.00
2023-05-05T13:12:47.540Z,5.70
2023-05-05T13:14:08.169Z,5.10
2023-05-05T13:15:28.713Z,5.05
2023-05-05T13:16:49.231Z,6.05
2023-05-05T13:18:09.756Z,5.03
2023-05-05T13:19:30.558Z,6.20
2023-05-05T13:20:51.304Z,5.05
2023-05-05T13:22:13.251Z,5.63
2023-05-05T13:23:33.900Z,5.50
2023-05-05T13:24:54.318Z,4.78
2023-05-05T13:26:15.013Z,4.80
2023-05-05T13:27:38.852Z,5.38
2023-05-05T13:28:59.491Z,5.25
2023-05-05T13:30:20.032Z,5.17
2023-05-05T13:31:40.760Z,5.53
2023-05-05T13:33:02.717Z,5.10
2023-05-05T13:34:23.258Z,5.95
2023-05-05T13:35:43.891Z,5.50
2023-05-05T13:37:04.496Z,5.63
2023-05-05T13:38:26.656Z,5.55
2023-05-05T13:39:47.153Z,5.18
2023-05-05T13:41:07.803Z,4.40
2023-05-05T13:42:28.475Z,4.70
2023-05-05T13:43:49.266Z,3.90
2023-05-05T13:45:10.934Z,3.75
2023-05-05T13:46:31.937Z,3.20
2023-05-05T13:47:52.743Z,2.90
2023-05-05T13:49:13.573Z,3.28
2023-05-05T13:50:34.175Z,3.00
2023-05-05T13:51:54.977Z,3.45
2023-05-05T13:53:15.611Z,3.43
2023-05-05T13:54:37.529Z,3.75
2023-05-05T13:55:58.396Z,3.85
2023-05-05T13:57:19.087Z,4.00
2023-05-05T13:58:40.148Z,3.80
2023-05-05T14:00:00.892Z,3.60
2023-05-05T14:01:21.458Z,3.03
2023-05-05T14:02:42.386Z,3.33
2023-05-05T14:04:05.409Z,3.20
2023-05-05T14:05:26.872Z,3.42
2023-05-05T14:06:47.544Z,3.17
2023-05-05T14:08:08.409Z,2.97
2023-05-05T14:09:28.854Z,2.55
2023-05-05T14:10:52.086Z,3.90
2023-05-05T14:12:12.701Z,2.47
2023-05-05T14:13:33.419Z,3.10
2023-05-05T14:14:54.111Z,2.90
2023-05-05T14:16:14.874Z,2.08
2023-05-05T14:17:35.306Z,2.30
2023-05-05T14:18:56.080Z,2.53
2023-05-05T14:20:16.860Z,2.38
2023-05-05T14:21:37.571Z,2.80
2023-05-05T14:22:58.254Z,2.97
2023-05-05T14:24:18.880Z,2.73
2023-05-05T14:25:39.689Z,3.20
2023-05-05T14:27:01.584Z,2.85
2023-05-05T14:28:22.457Z,3.58
2023-05-05T14:29:43.049Z,2.92
2023-05-05T14:31:03.986Z,2.45
2023-05-05T14:32:24.712Z,2.77
2023-05-05T14:33:45.636Z,2.78
2023-05-05T14:35:07.364Z,3.40
2023-05-05T14:36:28.229Z,3.38
2023-05-05T14:37:48.765Z,3.75
2023-05-05T14:39:09.356Z,3.40
2023-05-05T14:40:30.092Z,3.60
2023-05-05T14:41:51.049Z,4.00
2023-05-05T14:43:12.953Z,3.95
2023-05-05T14:44:33.629Z,3.97
2023-05-05T14:45:53.933Z,4.25
2023-05-05T14:47:14.556Z,3.80
2023-05-05T14:48:35.550Z,3.95
2023-05-05T14:49:57.537Z,3.83
2023-05-05T14:51:18.134Z,3.63
2023-05-05T14:52:38.805Z,4.37
2023-05-05T14:53:59.554Z,4.00
2023-05-05T14:55:20.303Z,3.85
2023-05-05T14:56:40.866Z,4.32
2023-05-05T14:58:01.568Z,3.92
2023-05-05T14:59:23.510Z,4.10
2023-05-05T15:00:44.176Z,3.90
2023-05-05T15:02:05.017Z,4.72
2023-05-05T15:03:25.769Z,4.20
2023-05-05T15:04:48.525Z,4.25
2023-05-05T15:06:10.436Z,3.97
2023-05-05T15:07:31.174Z,4.50
2023-05-05T15:08:51.927Z,4.22
2023-05-05T15:10:12.683Z,4.15
2023-05-05T15:11:33.708Z,4.05
2023-05-05T15:12:54.168Z,4.40
2023-05-05T15:14:14.889Z,4.10
2023-05-05T15:15:36.752Z,3.80
2023-05-05T15:16:57.405Z,3.65
2023-05-05T15:18:18.108Z,4.20
2023-05-05T15:19:38.880Z,3.58
2023-05-05T15:20:59.249Z,3.92
2023-05-05T15:22:19.782Z,3.97
2023-05-05T15:23:40.450Z,3.88
2023-05-05T15:25:01.541Z,4.20
2023-05-05T15:26:22.340Z,4.38
2023-05-05T15:27:43.205Z,4.82
2023-05-05T15:29:04.672Z,4.35
2023-05-05T15:30:25.333Z,4.50
2023-05-05T15:31:47.334Z,5.05
2023-05-05T15:33:07.658Z,4.80
2023-05-05T15:34:28.348Z,5.82
2023-05-05T15:35:48.844Z,5.72
2023-05-05T15:37:09.487Z,5.22
2023-05-05T15:38:30.101Z,6.05
2023-05-05T15:39:50.834Z,6.03
2023-05-05T15:41:11.663Z,6.63
2023-05-05T15:42:32.707Z,6.50
2023-05-05T15:43:53.413Z,5.53
2023-05-05T15:45:14.163Z,5.28
2023-05-05T15:46:34.706Z,5.47
2023-05-05T15:47:56.707Z,6.43
2023-05-05T15:49:17.271Z,9.02
2023-05-05T15:50:37.778Z,9.40
2023-05-05T15:51:58.411Z,10.32
2023-05-05T15:53:18.984Z,9.48
2023-05-05T15:54:39.653Z,11.98
2023-05-05T15:56:00.309Z,10.82
2023-05-05T15:57:21.037Z,10.17
2023-05-05T15:58:41.722Z,9.68
2023-05-05T16:00:02.435Z,10.00
2023-05-05T16:01:22.936Z,10.00
2023-05-05T16:02:43.476Z,10.32
2023-05-05T16:04:05.421Z,9.88
2023-05-05T16:05:26.266Z,10.80
2023-05-05T16:06:46.922Z,9.25
2023-05-05T16:08:07.757Z,9.70
2023-05-05T16:09:28.328Z,9.38
2023-05-05T16:10:48.969Z,8.77
2023-05-05T16:12:09.495Z,8.90
2023-05-05T16:13:30.194Z,9.85
2023-05-05T16:14:50.995Z,9.75
2023-05-05T16:16:11.823Z,10.43
2023-05-05T16:17:32.365Z,10.40
2023-05-05T16:18:52.867Z,10.32
2023-05-05T16:20:15.121Z,9.30
2023-05-05T16:21:35.722Z,9.90
2023-05-05T16:22:56.499Z,11.10
2023-05-05T16:24:17.126Z,10.50
2023-05-05T16:25:37.500Z,10.90
2023-05-05T16:26:58.280Z,11.05
2023-05-05T16:28:18.819Z,10.88
2023-05-05T16:29:39.478Z,9.80
2023-05-05T16:31:00.347Z,10.07
2023-05-05T16:32:21.096Z,9.90
2023-05-05T16:33:41.588Z,9.90
2023-05-05T16:35:02.278Z,10.77
2023-05-05T16:36:24.317Z,9.68
2023-05-05T16:37:44.747Z,9.15
2023-05-05T16:39:05.489Z,11.18
2023-05-05T16:40:25.876Z,10.88
2023-05-05T16:41:46.245Z,10.10
2023-05-05T16:43:06.891Z,10.15
2023-05-05T16:44:27.496Z,9.15
2023-05-05T16:45:48.118Z,9.20
2023-05-05T16:47:08.671Z,9.63
2023-05-05T16:48:30.710Z,10.10
2023-05-05T16:49:51.200Z,11.15
2023-05-05T16:51:11.835Z,11.60
2023-05-05T16:52:33.960Z,9.98
2023-05-05T16:53:54.917Z,9.00
2023-05-05T16:55:15.892Z,9.63
2023-05-05T16:56:36.721Z,9.27
2023-05-05T16:57:57.409Z,10.38
2023-05-05T16:59:18.169Z,10.80
2023-05-05T17:00:39.023Z,10.88
2023-05-05T17:01:59.737Z,10.30
2023-05-05T17:03:20.705Z,10.43
2023-05-05T17:04:41.381Z,10.30
2023-05-05T17:06:02.623Z,10.38
2023-05-05T17:07:23.390Z,11.40
2023-05-05T17:08:45.332Z,10.35
2023-05-05T17:10:07.501Z,9.50
2023-05-05T17:11:28.279Z,10.05
2023-05-05T17:12:49.081Z,9.60
2023-05-05T17:14:09.784Z,10.82
2023-05-05T17:15:30.405Z,10.73
2023-05-05T17:16:50.891Z,9.73
2023-05-05T17:18:11.520Z,9.73
2023-05-05T17:19:32.162Z,9.63
2023-05-05T17:20:52.772Z,9.48
2023-05-05T17:22:13.566Z,10.25
2023-05-05T17:23:34.877Z,9.55
2023-05-05T17:24:57.020Z,8.55
2023-05-05T17:26:17.751Z,7.38
2023-05-05T17:27:38.328Z,7.88
2023-05-05T17:28:59.003Z,7.72
2023-05-05T17:30:19.806Z,7.80
2023-05-05T17:31:40.533Z,7.60
2023-05-05T17:33:01.168Z,7.97
2023-05-05T17:34:21.537Z,7.85
2023-05-05T17:35:41.897Z,7.22
2023-05-05T17:37:02.213Z,7.95
2023-05-05T17:38:22.829Z,7.47
2023-05-05T17:39:43.266Z,7.60
2023-05-05T17:41:05.128Z,6.85
2023-05-05T17:42:25.896Z,7.35
2023-05-05T17:43:46.455Z,6.70
2023-05-05T17:45:08.904Z,7.15
2023-05-05T17:46:29.923Z,7.32
2023-05-05T17:47:50.663Z,7.60
2023-05-05T17:49:11.321Z,7.13
2023-05-05T17:50:31.734Z,7.55
2023-05-05T17:51:52.374Z,8.35
2023-05-05T17:53:13.268Z,7.85
2023-05-05T17:54:33.805Z,7.07
2023-05-05T17:55:54.494Z,7.47
2023-05-05T17:57:16.596Z,7.30
2023-05-05T17:58:37.066Z,8.02
2023-05-05T17:59:57.823Z,7.88
2023-05-05T18:01:21.410Z,8.40
2023-05-05T18:02:41.990Z,7.60
2023-05-05T18:04:02.726Z,7.40
2023-05-05T18:05:23.533Z,8.00
2023-05-05T18:06:44.295Z,7.40
2023-05-05T18:08:05.175Z,7.60
2023-05-05T18:09:26.853Z,7.40
2023-05-05T18:10:47.198Z,8.18
2023-05-05T18:12:07.971Z,8.17
2023-05-05T18:13:30.118Z,8.52
2023-05-05T18:14:50.994Z,7.88
2023-05-05T18:16:11.801Z,8.02